Time,TemperatureF,DewpointF,PressureIn,WindDirection,WindDirectionDegrees,WindSpeedMPH,WindSpeedGustMPH,Humidity,HourlyPrecipIn,Conditions,Clouds,dailyrainin,SolarRadiationWatts/m^2,SoftwareType,DateUTC
2013-05-29 00:11:00,44.0,36.0,-100.00,NW,314,5.0,6.0,72,0.00,,,0.00,0.000000,,2013-05-29 07:11:00,
2013-05-29 00:21:00,44.0,36.0,-100.00,NW,314,5.0,6.0,72,0.00,,,0.00,0.000000,,2013-05-29 07:21:00,
2013-05-29 00:34:00,44.0,36.0,-100.00,NW,314,5.0,6.0,72,0.00,,,0.00,0.000000,,2013-05-29 07:34:00,
2013-05-29 00:42:00,44.0,36.0,-100.00,NW,314,5.0,6.0,72,0.00,,,0.00,0.000000,,2013-05-29 07:42:00,
2013-05-29 01:11:00,42.0,35.0,-100.00,WNW,302,6.0,8.0,76,0.00,,,0.00,0.000000,,2013-05-29 08:11:00,
2013-05-29 01:21:00,42.0,35.0,-100.00,WNW,302,6.0,8.0,76,0.00,,,0.00,0.000000,,2013-05-29 08:21:00,
2013-05-29 01:32:00,42.0,35.0,-100.00,WNW,302,6.0,8.0,76,0.00,,,0.00,0.000000,,2013-05-29 08:32:00,
2013-05-29 01:41:00,42.0,35.0,-100.00,WNW,302,6.0,8.0,76,0.00,,,0.00,0.000000,,2013-05-29 08:41:00,
2013-05-29 02:11:00,43.0,35.0,-100.00,NNW,331,6.0,8.0,74,0.00,,,0.00,0.000000,,2013-05-29 09:11:00,
2013-05-29 02:21:00,43.0,35.0,-100.00,NNW,331,6.0,8.0,74,0.00,,,0.00,0.000000,,2013-05-29 09:21:00,
2013-05-29 02:33:00,43.0,35.0,-100.00,NNW,331,6.0,8.0,74,0.00,,,0.00,0.000000,,2013-05-29 09:33:00,
2013-05-29 02:42:00,43.0,35.0,-100.00,NNW,331,6.0,8.0,74,0.00,,,0.00,0.000000,,2013-05-29 09:42:00,
2013-05-29 03:12:00,42.0,35.0,-100.00,NNE,32,6.0,8.0,75,0.00,,,0.00,0.000000,,2013-05-29 10:12:00,
2013-05-29 03:22:00,42.0,35.0,-100.00,NNE,32,6.0,8.0,75,0.00,,,0.00,0.000000,,2013-05-29 10:22:00,
2013-05-29 03:32:00,42.0,35.0,-100.00,NNE,32,6.0,8.0,75,0.00,,,0.00,0.000000,,2013-05-29 10:32:00,
2013-05-29 03:42:00,42.0,35.0,-100.00,NNE,32,6.0,8.0,75,0.00,,,0.00,0.000000,,2013-05-29 10:42:00,
2013-05-29 04:12:00,43.0,36.0,-100.00,WNW,297,1.0,7.0,75,0.00,,,0.00,0.000000,,2013-05-29 11:12:00,
2013-05-29 04:21:00,43.0,36.0,-100.00,WNW,297,1.0,7.0,75,0.00,,,0.00,0.000000,,2013-05-29 11:21:00,
2013-05-29 04:32:00,43.0,36.0,-100.00,WNW,297,1.0,7.0,75,0.00,,,0.00,0.000000,,2013-05-29 11:32:00,
2013-05-29 04:41:00,43.0,36.0,-100.00,WNW,297,1.0,7.0,75,0.00,,,0.00,0.000000,,2013-05-29 11:41:00,
2013-05-29 05:11:00,41.0,37.0,-100.00,NNE,22,6.0,8.0,85,0.00,,,0.00,0.000000,,2013-05-29 12:11:00,
2013-05-29 05:21:00,41.0,37.0,-100.00,NNE,22,6.0,8.0,85,0.00,,,0.00,0.000000,,2013-05-29 12:21:00,
2013-05-29 05:32:00,41.0,37.0,-100.00,NNE,22,6.0,8.0,85,0.00,,,0.00,0.000000,,2013-05-29 12:32:00,
2013-05-29 05:42:00,41.0,37.0,-100.00,NNE,22,6.0,8.0,85,0.00,,,0.00,0.000000,,2013-05-29 12:42:00,
2013-05-29 06:11:00,43.0,39.0,-100.00,ENE,78,2.0,6.0,85,0.00,,,0.00,0.000000,,2013-05-29 13:11:00,
2013-05-29 06:21:00,43.0,39.0,-100.00,ENE,78,2.0,6.0,85,0.00,,,0.00,0.000000,,2013-05-29 13:21:00,
2013-05-29 06:31:00,43.0,39.0,-100.00,ENE,78,2.0,6.0,85,0.00,,,0.00,0.000000,,2013-05-29 13:31:00,
2013-05-29 06:42:00,43.0,39.0,-100.00,ENE,78,2.0,6.0,85,0.00,,,0.00,0.000000,,2013-05-29 13:42:00,
2013-05-29 07:11:00,45.0,41.0,-100.00,NE,46,3.0,6.0,86,0.00,,,0.00,0.000000,,2013-05-29 14:11:00,
2013-05-29 07:21:00,45.0,41.0,-100.00,NE,46,3.0,6.0,86,0.00,,,0.00,0.000000,,2013-05-29 14:21:00,
2013-05-29 07:32:00,45.0,41.0,-100.00,NE,46,3.0,6.0,86,0.00,,,0.00,0.000000,,2013-05-29 14:32:00,
2013-05-29 07:41:00,45.0,41.0,-100.00,NE,46,3.0,6.0,86,0.00,,,0.00,0.000000,,2013-05-29 14:41:00,
2013-05-29 08:11:00,46.0,40.0,-100.00,South,178,2.0,5.0,78,0.00,,,0.00,6.000000,,2013-05-29 15:11:00,
2013-05-29 08:21:00,46.0,40.0,-100.00,South,178,2.0,5.0,78,0.00,,,0.00,6.000000,,2013-05-29 15:21:00,
2013-05-29 08:32:00,46.0,40.0,-100.00,South,178,2.0,5.0,78,0.00,,,0.00,6.000000,,2013-05-29 15:32:00,
2013-05-29 08:42:00,46.0,40.0,-100.00,South,178,2.0,5.0,78,0.00,,,0.00,6.000000,,2013-05-29 15:42:00,
2013-05-29 09:12:00,46.0,42.0,-100.00,SSW,205,4.0,7.0,87,0.03,,,0.03,20.000000,,2013-05-29 16:12:00,
2013-05-29 09:22:00,46.0,42.0,-100.00,SSW,205,4.0,7.0,87,0.03,,,0.03,20.000000,,2013-05-29 16:22:00,
2013-05-29 09:32:00,46.0,42.0,-100.00,SSW,205,4.0,7.0,87,0.03,,,0.03,20.000000,,2013-05-29 16:32:00,
2013-05-29 09:42:00,46.0,42.0,-100.00,SSW,205,4.0,7.0,87,0.03,,,0.03,20.000000,,2013-05-29 16:42:00,
2013-05-29 10:12:00,51.0,42.0,-100.00,SE,146,5.0,8.0,71,0.00,,,0.03,330.000000,,2013-05-29 17:12:00,
2013-05-29 10:22:00,51.0,42.0,-100.00,SE,146,5.0,8.0,71,0.00,,,0.03,330.000000,,2013-05-29 17:22:00,
2013-05-29 10:32:00,51.0,42.0,-100.00,SE,146,5.0,8.0,71,0.00,,,0.03,330.000000,,2013-05-29 17:32:00,
2013-05-29 10:42:00,51.0,42.0,-100.00,SE,146,5.0,8.0,71,0.00,,,0.03,330.000000,,2013-05-29 17:42:00,
2013-05-29 11:13:00,52.0,40.0,-100.00,South,188,7.0,13.0,64,0.00,,,-99.99,395.000000,,2013-05-29 18:13:00,
2013-05-29 11:22:00,52.0,40.0,-100.00,South,188,7.0,13.0,64,0.00,,,-99.99,395.000000,,2013-05-29 18:22:00,
2013-05-29 11:32:00,52.0,40.0,-100.00,South,188,7.0,13.0,64,0.00,,,-99.99,395.000000,,2013-05-29 18:32:00,
2013-05-29 11:41:00,52.0,40.0,-100.00,South,188,7.0,13.0,64,0.00,,,-99.99,395.000000,,2013-05-29 18:41:00,
2013-05-29 12:11:00,53.0,43.0,-100.00,South,169,10.0,14.0,68,0.00,,,0.03,241.000000,,2013-05-29 19:11:00,
2013-05-29 12:21:00,53.0,43.0,-100.00,South,169,10.0,14.0,68,0.00,,,0.03,241.000000,,2013-05-29 19:21:00,
2013-05-29 12:32:00,53.0,43.0,-100.00,South,169,10.0,14.0,68,0.00,,,0.03,241.000000,,2013-05-29 19:32:00,
2013-05-29 12:44:00,53.0,43.0,-100.00,South,169,10.0,14.0,68,0.00,,,0.03,241.000000,,2013-05-29 19:44:00,
2013-05-29 13:11:00,54.0,43.0,-100.00,SSE,166,10.0,14.0,66,0.00,,,0.03,219.000000,,2013-05-29 20:11:00,
2013-05-29 13:22:00,54.0,43.0,-100.00,SSE,166,10.0,14.0,66,0.00,,,0.03,219.000000,,2013-05-29 20:22:00,
2013-05-29 13:32:00,54.0,43.0,-100.00,SSE,166,10.0,14.0,66,0.00,,,0.03,219.000000,,2013-05-29 20:32:00,
2013-05-29 13:42:00,54.0,43.0,-100.00,SSE,166,10.0,14.0,66,0.00,,,0.03,219.000000,,2013-05-29 20:42:00,
2013-05-29 14:12:00,55.0,42.0,-100.00,South,183,7.0,14.0,62,0.00,,,0.03,213.000000,,2013-05-29 21:12:00,
2013-05-29 14:22:00,55.0,42.0,-100.00,South,183,7.0,14.0,62,0.00,,,0.03,213.000000,,2013-05-29 21:22:00,
2013-05-29 14:33:00,55.0,42.0,-100.00,South,183,7.0,14.0,62,0.00,,,0.03,213.000000,,2013-05-29 21:33:00,
2013-05-29 14:43:00,55.0,42.0,-100.00,South,183,7.0,14.0,62,0.00,,,0.03,213.000000,,2013-05-29 21:43:00,
2013-05-29 15:12:00,52.0,44.0,-100.00,SSE,148,10.0,15.0,74,0.00,,,0.03,100.000000,,2013-05-29 22:12:00,
2013-05-29 15:23:00,52.0,44.0,-100.00,SSE,148,10.0,15.0,74,0.00,,,0.03,100.000000,,2013-05-29 22:23:00,
2013-05-29 15:33:00,52.0,44.0,-100.00,SSE,148,10.0,15.0,74,0.00,,,0.03,100.000000,,2013-05-29 22:33:00,
2013-05-29 15:42:00,52.0,44.0,-100.00,SSE,148,10.0,15.0,74,0.00,,,0.03,100.000000,,2013-05-29 22:42:00,
2013-05-29 16:12:00,51.0,48.0,-100.00,South,177,5.0,15.0,90,0.17,,,0.20,67.000000,,2013-05-29 23:12:00,
2013-05-29 16:21:00,51.0,48.0,-100.00,South,177,5.0,15.0,90,0.17,,,0.20,67.000000,,2013-05-29 23:21:00,
2013-05-29 16:33:00,51.0,48.0,-100.00,South,177,5.0,15.0,90,0.17,,,0.20,67.000000,,2013-05-29 23:33:00,
2013-05-29 16:42:00,51.0,48.0,-100.00,South,177,5.0,15.0,90,0.17,,,0.20,67.000000,,2013-05-29 23:42:00,
2013-05-29 17:11:00,50.0,46.0,-100.00,WSW,257,0.0,9.0,86,0.09,,,0.29,17.000000,,2013-05-30 00:11:00,
2013-05-29 17:21:00,50.0,46.0,-100.00,WSW,257,0.0,9.0,86,0.09,,,0.29,17.000000,,2013-05-30 00:21:00,
2013-05-29 17:31:00,50.0,46.0,-100.00,WSW,257,0.0,9.0,86,0.09,,,0.29,17.000000,,2013-05-30 00:31:00,
2013-05-29 17:41:00,50.0,46.0,-100.00,WSW,257,0.0,9.0,86,0.09,,,0.29,17.000000,,2013-05-30 00:41:00,
2013-05-29 18:11:00,58.0,46.0,-100.00,WNW,285,4.0,14.0,65,0.00,,,0.29,247.000000,,2013-05-30 01:11:00,
2013-05-29 18:21:00,58.0,46.0,-100.00,WNW,285,4.0,14.0,65,0.00,,,0.29,247.000000,,2013-05-30 01:21:00,
2013-05-29 18:31:00,58.0,46.0,-100.00,WNW,285,4.0,14.0,65,0.00,,,0.29,247.000000,,2013-05-30 01:31:00,
2013-05-29 18:41:00,58.0,46.0,-100.00,WNW,285,4.0,14.0,65,0.00,,,0.29,247.000000,,2013-05-30 01:41:00,
2013-05-29 19:11:00,56.0,41.0,-100.00,WNW,295,12.0,18.0,56,0.00,,,0.29,146.000000,,2013-05-30 02:11:00,
2013-05-29 19:21:00,56.0,41.0,-100.00,WNW,295,12.0,18.0,56,0.00,,,0.29,146.000000,,2013-05-30 02:21:00,
2013-05-29 19:32:00,56.0,41.0,-100.00,WNW,295,12.0,18.0,56,0.00,,,0.29,146.000000,,2013-05-30 02:32:00,
2013-05-29 19:42:00,56.0,41.0,-100.00,WNW,295,12.0,18.0,56,0.00,,,0.29,146.000000,,2013-05-30 02:42:00,
2013-05-29 20:11:00,53.0,38.0,-100.00,WNW,287,6.0,17.0,57,0.00,,,0.29,36.000000,,2013-05-30 03:11:00,
2013-05-29 20:21:00,53.0,38.0,-100.00,WNW,287,6.0,17.0,57,0.00,,,0.29,36.000000,,2013-05-30 03:21:00,
2013-05-29 20:33:00,53.0,38.0,-100.00,WNW,287,6.0,17.0,57,0.00,,,0.29,36.000000,,2013-05-30 03:33:00,
2013-05-29 20:43:00,53.0,38.0,-100.00,WNW,287,6.0,17.0,57,0.00,,,0.29,36.000000,,2013-05-30 03:43:00,
2013-05-29 21:12:00,48.0,38.0,-100.00,WNW,302,6.0,14.0,69,0.00,,,0.29,0.000000,,2013-05-30 04:12:00,
2013-05-29 21:23:00,48.0,38.0,-100.00,WNW,302,6.0,14.0,69,0.00,,,0.29,0.000000,,2013-05-30 04:23:00,
2013-05-29 21:32:00,48.0,38.0,-100.00,WNW,302,6.0,14.0,69,0.00,,,0.29,0.000000,,2013-05-30 04:32:00,
2013-05-29 21:42:00,48.0,38.0,-100.00,WNW,302,6.0,14.0,69,0.00,,,0.29,0.000000,,2013-05-30 04:42:00,
2013-05-29 22:12:00,44.0,34.0,-100.00,West,281,7.0,12.0,69,0.00,,,0.29,0.000000,,2013-05-30 05:12:00,
2013-05-29 22:22:00,44.0,34.0,-100.00,West,281,7.0,12.0,69,0.00,,,0.29,0.000000,,2013-05-30 05:22:00,
2013-05-29 22:32:00,44.0,34.0,-100.00,West,281,7.0,12.0,69,0.00,,,0.29,0.000000,,2013-05-30 05:32:00,
2013-05-29 22:42:00,44.0,34.0,-100.00,West,281,7.0,12.0,69,0.00,,,0.29,0.000000,,2013-05-30 05:42:00,
2013-05-29 23:12:00,42.0,35.0,-100.00,West,264,7.0,9.0,77,0.00,,,0.29,0.000000,,2013-05-30 06:12:00,
2013-05-29 23:21:00,42.0,35.0,-100.00,West,264,7.0,9.0,77,0.00,,,0.29,0.000000,,2013-05-30 06:21:00,
2013-05-29 23:32:00,42.0,35.0,-100.00,West,264,7.0,9.0,77,0.00,,,0.29,0.000000,,2013-05-30 06:32:00,
2013-05-29 23:41:00,42.0,35.0,-100.00,West,264,7.0,9.0,77,0.00,,,0.29,0.000000,,2013-05-30 06:41:00,